San Luis Obispo (SBP/KSBP)

Map

Destinations

Information

Location
San Luis Obispo, CA
Local Time
17:59 / 5:59 pm
GMT Time
01:59 / 1:59 am
Gates
3
No FAA reported delays
METAR KSBP 250156Z 06005KT 10SM CLR 24/11 A2989 RMK AO2 SLP118 T02440106
TAF KSBP 242336Z 2500/2524 36010KT P6SM SCT200 FM250200 32006KT P6SM SKC FM250900 VRB03KT P6SM SKC FM251800 23008KT P6SM BKN250